sensor_id;sensor_type;location;lat;lon;timestamp;temperature;humidity
13898;DHT22;7019;50.766;4.474;2022-08-19T00:01:19;17.40;99.90
13898;DHT22;7019;50.766;4.474;2022-08-19T00:03:48;17.40;99.90
13898;DHT22;7019;50.766;4.474;2022-08-19T00:06:15;17.40;99.90
13898;DHT22;7019;50.766;4.474;2022-08-19T00:08:42;17.40;99.90
13898;DHT22;7019;50.766;4.474;2022-08-19T00:11:10;17.40;99.90
13898;DHT22;7019;50.766;4.474;2022-08-19T00:13:38;17.40;99.90
13898;DHT22;7019;50.766;4.474;2022-08-19T00:16:06;17.40;99.90
13898;DHT22;7019;50.766;4.474;2022-08-19T00:18:33;17.40;99.90
13898;DHT22;7019;50.766;4.474;2022-08-19T00:21:02;17.40;99.90
13898;DHT22;7019;50.766;4.474;2022-08-19T00:23:33;17.40;99.90
13898;DHT22;7019;50.766;4.474;2022-08-19T00:26:02;17.40;99.90
13898;DHT22;7019;50.766;4.474;2022-08-19T00:28:29;17.40;99.90
13898;DHT22;7019;50.766;4.474;2022-08-19T00:30:56;17.40;99.90
13898;DHT22;7019;50.766;4.474;2022-08-19T00:33:24;17.30;99.90
13898;DHT22;7019;50.766;4.474;2022-08-19T00:35:51;17.20;99.90
13898;DHT22;7019;50.766;4.474;2022-08-19T00:38:19;17.20;99.90
13898;DHT22;7019;50.766;4.474;2022-08-19T00:40:48;17.10;99.90
13898;DHT22;7019;50.766;4.474;2022-08-19T00:43:19;17.10;99.90
13898;DHT22;7019;50.766;4.474;2022-08-19T00:45:47;17.10;99.90
13898;DHT22;7019;50.766;4.474;2022-08-19T00:48:15;17.10;99.90
13898;DHT22;7019;50.766;4.474;2022-08-19T00:50:43;17.10;99.90
13898;DHT22;7019;50.766;4.474;2022-08-19T00:53:13;17.10;99.90
13898;DHT22;7019;50.766;4.474;2022-08-19T00:55:45;17.20;99.90
13898;DHT22;7019;50.766;4.474;2022-08-19T00:58:16;17.20;99.90
13898;DHT22;7019;50.766;4.474;2022-08-19T01:00:45;17.20;99.90
13898;DHT22;7019;50.766;4.474;2022-08-19T01:03:18;17.20;99.90
13898;DHT22;7019;50.766;4.474;2022-08-19T01:05:46;17.20;99.90
13898;DHT22;7019;50.766;4.474;2022-08-19T01:08:15;17.20;99.90
13898;DHT22;7019;50.766;4.474;2022-08-19T01:10:48;17.20;99.90
13898;DHT22;7019;50.766;4.474;2022-08-19T01:13:20;17.20;99.90
13898;DHT22;7019;50.766;4.474;2022-08-19T01:15:50;17.10;99.90
13898;DHT22;7019;50.766;4.474;2022-08-19T01:18:19;17.00;99.90
13898;DHT22;7019;50.766;4.474;2022-08-19T01:20:47;17.00;99.90
13898;DHT22;7019;50.766;4.474;2022-08-19T01:23:16;16.90;99.90
13898;DHT22;7019;50.766;4.474;2022-08-19T01:25:49;16.90;99.90
13898;DHT22;7019;50.766;4.474;2022-08-19T01:28:19;16.90;99.90
13898;DHT22;7019;50.766;4.474;2022-08-19T01:30:47;16.90;99.90
13898;DHT22;7019;50.766;4.474;2022-08-19T01:33:16;16.90;99.90
13898;DHT22;7019;50.766;4.474;2022-08-19T01:35:43;16.80;99.90
13898;DHT22;7019;50.766;4.474;2022-08-19T01:38:20;16.80;99.90
13898;DHT22;7019;50.766;4.474;2022-08-19T01:40:48;16.80;99.90
13898;DHT22;7019;50.766;4.474;2022-08-19T01:43:16;16.80;99.90
13898;DHT22;7019;50.766;4.474;2022-08-19T01:45:45;16.80;99.90
13898;DHT22;7019;50.766;4.474;2022-08-19T01:48:13;16.70;99.90
13898;DHT22;7019;50.766;4.474;2022-08-19T01:50:40;16.70;99.90
13898;DHT22;7019;50.766;4.474;2022-08-19T01:53:11;16.70;99.90
13898;DHT22;7019;50.766;4.474;2022-08-19T01:55:41;16.70;99.90
13898;DHT22;7019;50.766;4.474;2022-08-19T01:58:12;16.70;99.90
13898;DHT22;7019;50.766;4.474;2022-08-19T02:00:41;16.70;99.90
13898;DHT22;7019;50.766;4.474;2022-08-19T02:03:08;16.80;99.90
13898;DHT22;7019;50.766;4.474;2022-08-19T02:05:37;16.80;99.90
13898;DHT22;7019;50.766;4.474;2022-08-19T02:08:05;16.80;99.90
13898;DHT22;7019;50.766;4.474;2022-08-19T02:10:32;16.70;99.90
13898;DHT22;7019;50.766;4.474;2022-08-19T02:13:01;16.70;99.90
13898;DHT22;7019;50.766;4.474;2022-08-19T02:15:28;16.70;99.90
13898;DHT22;7019;50.766;4.474;2022-08-19T02:17:55;16.70;99.90
13898;DHT22;7019;50.766;4.474;2022-08-19T02:20:22;16.60;99.90
13898;DHT22;7019;50.766;4.474;2022-08-19T02:22:49;16.50;99.90
13898;DHT22;7019;50.766;4.474;2022-08-19T02:25:18;16.50;99.90
13898;DHT22;7019;50.766;4.474;2022-08-19T02:27:45;16.50;99.90
13898;DHT22;7019;50.766;4.474;2022-08-19T02:30:15;16.40;99.90
13898;DHT22;7019;50.766;4.474;2022-08-19T02:32:43;16.40;99.90
13898;DHT22;7019;50.766;4.474;2022-08-19T02:35:11;16.30;99.90
13898;DHT22;7019;50.766;4.474;2022-08-19T02:37:39;16.40;99.90
13898;DHT22;7019;50.766;4.474;2022-08-19T02:40:23;16.40;99.90
13898;DHT22;7019;50.766;4.474;2022-08-19T02:42:51;16.40;99.90
13898;DHT22;7019;50.766;4.474;2022-08-19T02:45:20;16.50;99.90
13898;DHT22;7019;50.766;4.474;2022-08-19T02:47:47;16.50;99.90
13898;DHT22;7019;50.766;4.474;2022-08-19T02:50:15;16.50;99.90
13898;DHT22;7019;50.766;4.474;2022-08-19T02:52:42;16.50;99.90
13898;DHT22;7019;50.766;4.474;2022-08-19T02:55:09;16.40;99.90
13898;DHT22;7019;50.766;4.474;2022-08-19T02:57:36;16.40;99.90
13898;DHT22;7019;50.766;4.474;2022-08-19T03:00:05;16.40;99.90
13898;DHT22;7019;50.766;4.474;2022-08-19T03:02:34;16.30;99.90
13898;DHT22;7019;50.766;4.474;2022-08-19T03:05:03;16.30;99.90
13898;DHT22;7019;50.766;4.474;2022-08-19T03:07:30;16.30;99.90
13898;DHT22;7019;50.766;4.474;2022-08-19T03:09:57;16.30;99.90
13898;DHT22;7019;50.766;4.474;2022-08-19T03:12:24;16.30;99.90
13898;DHT22;7019;50.766;4.474;2022-08-19T03:14:52;16.30;99.90
13898;DHT22;7019;50.766;4.474;2022-08-19T03:17:19;16.20;99.90
13898;DHT22;7019;50.766;4.474;2022-08-19T03:19:47;16.20;99.90
13898;DHT22;7019;50.766;4.474;2022-08-19T03:22:14;16.20;99.90
13898;DHT22;7019;50.766;4.474;2022-08-19T03:24:42;16.20;99.90
13898;DHT22;7019;50.766;4.474;2022-08-19T03:27:09;16.20;99.90
13898;DHT22;7019;50.766;4.474;2022-08-19T03:29:37;16.10;99.90
13898;DHT22;7019;50.766;4.474;2022-08-19T03:32:05;16.10;99.90
13898;DHT22;7019;50.766;4.474;2022-08-19T03:34:34;16.20;99.90
13898;DHT22;7019;50.766;4.474;2022-08-19T03:37:08;16.10;99.90
13898;DHT22;7019;50.766;4.474;2022-08-19T03:39:37;16.10;99.90
13898;DHT22;7019;50.766;4.474;2022-08-19T03:42:04;16.10;99.90
13898;DHT22;7019;50.766;4.474;2022-08-19T03:44:32;16.10;99.90
13898;DHT22;7019;50.766;4.474;2022-08-19T03:46:59;16.00;99.90
13898;DHT22;7019;50.766;4.474;2022-08-19T03:49:29;16.00;99.90
13898;DHT22;7019;50.766;4.474;2022-08-19T03:51:57;16.00;99.90
13898;DHT22;7019;50.766;4.474;2022-08-19T03:54:27;15.90;99.90
13898;DHT22;7019;50.766;4.474;2022-08-19T03:56:56;15.90;99.90
13898;DHT22;7019;50.766;4.474;2022-08-19T03:59:28;15.90;99.90
13898;DHT22;7019;50.766;4.474;2022-08-19T04:01:58;15.90;99.90
13898;DHT22;7019;50.766;4.474;2022-08-19T04:04:26;15.90;99.90
13898;DHT22;7019;50.766;4.474;2022-08-19T04:06:54;15.90;99.90
13898;DHT22;7019;50.766;4.474;2022-08-19T04:09:22;15.90;99.90
13898;DHT22;7019;50.766;4.474;2022-08-19T04:11:52;15.90;99.90
13898;DHT22;7019;50.766;4.474;2022-08-19T04:14:22;15.80;99.90
13898;DHT22;7019;50.766;4.474;2022-08-19T04:16:50;15.80;99.90
13898;DHT22;7019;50.766;4.474;2022-08-19T04:19:18;15.90;99.90
13898;DHT22;7019;50.766;4.474;2022-08-19T04:21:48;15.90;99.90
13898;DHT22;7019;50.766;4.474;2022-08-19T04:24:17;16.10;99.90
13898;DHT22;7019;50.766;4.474;2022-08-19T04:26:45;16.00;99.90
13898;DHT22;7019;50.766;4.474;2022-08-19T04:29:16;16.00;99.90
13898;DHT22;7019;50.766;4.474;2022-08-19T04:31:44;16.00;99.90
13898;DHT22;7019;50.766;4.474;2022-08-19T04:34:14;16.00;99.90
13898;DHT22;7019;50.766;4.474;2022-08-19T04:36:43;16.00;99.90
13898;DHT22;7019;50.766;4.474;2022-08-19T04:39:13;17.70;99.90
13898;DHT22;7019;50.766;4.474;2022-08-19T04:41:43;16.00;99.90
13898;DHT22;7019;50.766;4.474;2022-08-19T04:44:30;15.90;99.90
13898;DHT22;7019;50.766;4.474;2022-08-19T04:46:57;16.00;99.90
13898;DHT22;7019;50.766;4.474;2022-08-19T04:49:24;16.00;99.90
13898;DHT22;7019;50.766;4.474;2022-08-19T04:51:53;16.00;99.90
13898;DHT22;7019;50.766;4.474;2022-08-19T04:54:22;16.00;99.90
13898;DHT22;7019;50.766;4.474;2022-08-19T04:56:51;15.90;99.90
13898;DHT22;7019;50.766;4.474;2022-08-19T04:59:19;15.40;99.90
13898;DHT22;7019;50.766;4.474;2022-08-19T05:01:48;16.00;99.90
13898;DHT22;7019;50.766;4.474;2022-08-19T05:04:17;16.00;99.90
13898;DHT22;7019;50.766;4.474;2022-08-19T05:06:45;16.00;99.90
13898;DHT22;7019;50.766;4.474;2022-08-19T05:09:13;16.00;99.90
13898;DHT22;7019;50.766;4.474;2022-08-19T05:11:43;16.10;99.90
13898;DHT22;7019;50.766;4.474;2022-08-19T05:14:11;16.20;99.90
13898;DHT22;7019;50.766;4.474;2022-08-19T05:16:40;16.20;99.90
13898;DHT22;7019;50.766;4.474;2022-08-19T05:19:08;16.30;99.90
13898;DHT22;7019;50.766;4.474;2022-08-19T05:21:54;16.30;99.90
13898;DHT22;7019;50.766;4.474;2022-08-19T05:24:39;16.30;99.90
13898;DHT22;7019;50.766;4.474;2022-08-19T05:27:06;16.30;99.90
13898;DHT22;7019;50.766;4.474;2022-08-19T05:29:34;16.20;99.90
13898;DHT22;7019;50.766;4.474;2022-08-19T05:32:04;16.20;99.90
13898;DHT22;7019;50.766;4.474;2022-08-19T05:34:35;16.20;99.90
13898;DHT22;7019;50.766;4.474;2022-08-19T05:37:04;16.20;99.90
13898;DHT22;7019;50.766;4.474;2022-08-19T05:39:35;16.30;99.90
13898;DHT22;7019;50.766;4.474;2022-08-19T05:42:05;16.40;99.90
13898;DHT22;7019;50.766;4.474;2022-08-19T05:44:35;16.40;99.90
13898;DHT22;7019;50.766;4.474;2022-08-19T05:47:05;16.50;99.90
13898;DHT22;7019;50.766;4.474;2022-08-19T05:49:36;16.50;99.90
13898;DHT22;7019;50.766;4.474;2022-08-19T05:52:05;16.50;99.90
13898;DHT22;7019;50.766;4.474;2022-08-19T05:54:32;16.60;99.90
13898;DHT22;7019;50.766;4.474;2022-08-19T05:57:00;16.60;99.90
13898;DHT22;7019;50.766;4.474;2022-08-19T05:59:28;16.70;99.90
13898;DHT22;7019;50.766;4.474;2022-08-19T06:01:56;16.80;99.90
13898;DHT22;7019;50.766;4.474;2022-08-19T06:04:24;16.90;99.90
13898;DHT22;7019;50.766;4.474;2022-08-19T06:06:53;16.90;99.90
13898;DHT22;7019;50.766;4.474;2022-08-19T06:09:22;16.90;99.90
13898;DHT22;7019;50.766;4.474;2022-08-19T06:11:51;17.00;99.90
13898;DHT22;7019;50.766;4.474;2022-08-19T06:14:22;17.10;99.90
13898;DHT22;7019;50.766;4.474;2022-08-19T06:16:49;17.30;99.90
13898;DHT22;7019;50.766;4.474;2022-08-19T06:19:20;17.50;99.90
13898;DHT22;7019;50.766;4.474;2022-08-19T06:28:39;18.10;99.90
13898;DHT22;7019;50.766;4.474;2022-08-19T06:31:08;18.30;99.90
13898;DHT22;7019;50.766;4.474;2022-08-19T06:33:36;18.40;99.90
13898;DHT22;7019;50.766;4.474;2022-08-19T06:36:04;18.50;99.90
13898;DHT22;7019;50.766;4.474;2022-08-19T06:38:32;18.50;99.90
13898;DHT22;7019;50.766;4.474;2022-08-19T06:41:01;18.60;99.90
13898;DHT22;7019;50.766;4.474;2022-08-19T06:43:28;18.80;99.90
13898;DHT22;7019;50.766;4.474;2022-08-19T06:45:56;19.10;99.90
13898;DHT22;7019;50.766;4.474;2022-08-19T06:48:24;19.30;99.90
13898;DHT22;7019;50.766;4.474;2022-08-19T06:50:51;19.30;99.90
13898;DHT22;7019;50.766;4.474;2022-08-19T06:53:18;19.30;99.90
13898;DHT22;7019;50.766;4.474;2022-08-19T06:55:45;19.30;99.90
13898;DHT22;7019;50.766;4.474;2022-08-19T06:58:13;19.40;99.90
13898;DHT22;7019;50.766;4.474;2022-08-19T07:00:40;19.40;99.90
13898;DHT22;7019;50.766;4.474;2022-08-19T07:03:08;19.50;99.90
13898;DHT22;7019;50.766;4.474;2022-08-19T07:05:40;19.70;99.90
13898;DHT22;7019;50.766;4.474;2022-08-19T07:08:07;19.70;99.90
13898;DHT22;7019;50.766;4.474;2022-08-19T07:10:35;19.80;99.90
13898;DHT22;7019;50.766;4.474;2022-08-19T07:13:02;19.70;99.90
13898;DHT22;7019;50.766;4.474;2022-08-19T07:15:29;19.90;99.90
13898;DHT22;7019;50.766;4.474;2022-08-19T07:17:57;20.00;99.90
13898;DHT22;7019;50.766;4.474;2022-08-19T07:20:25;20.20;99.90
13898;DHT22;7019;50.766;4.474;2022-08-19T07:22:52;20.40;99.90
13898;DHT22;7019;50.766;4.474;2022-08-19T07:25:19;20.70;99.90
13898;DHT22;7019;50.766;4.474;2022-08-19T07:27:49;21.00;99.90
13898;DHT22;7019;50.766;4.474;2022-08-19T07:30:16;21.00;99.90
13898;DHT22;7019;50.766;4.474;2022-08-19T07:32:43;21.00;99.90
13898;DHT22;7019;50.766;4.474;2022-08-19T07:35:10;20.90;99.90
13898;DHT22;7019;50.766;4.474;2022-08-19T07:37:39;21.00;99.90
13898;DHT22;7019;50.766;4.474;2022-08-19T07:40:10;21.40;99.90
13898;DHT22;7019;50.766;4.474;2022-08-19T07:42:37;21.70;99.90
13898;DHT22;7019;50.766;4.474;2022-08-19T07:45:05;22.30;99.90
13898;DHT22;7019;50.766;4.474;2022-08-19T07:47:33;22.70;99.90
13898;DHT22;7019;50.766;4.474;2022-08-19T07:50:00;22.70;99.90
13898;DHT22;7019;50.766;4.474;2022-08-19T07:52:29;22.40;99.90
13898;DHT22;7019;50.766;4.474;2022-08-19T07:54:58;22.30;99.90
13898;DHT22;7019;50.766;4.474;2022-08-19T07:57:29;22.30;99.90
13898;DHT22;7019;50.766;4.474;2022-08-19T07:59:56;22.10;99.90
13898;DHT22;7019;50.766;4.474;2022-08-19T08:02:23;21.80;99.90
13898;DHT22;7019;50.766;4.474;2022-08-19T08:04:50;21.70;99.90
13898;DHT22;7019;50.766;4.474;2022-08-19T08:07:34;21.50;99.90
13898;DHT22;7019;50.766;4.474;2022-08-19T08:10:19;21.40;99.90
13898;DHT22;7019;50.766;4.474;2022-08-19T08:12:46;21.30;99.90
13898;DHT22;7019;50.766;4.474;2022-08-19T08:15:15;21.30;99.90
13898;DHT22;7019;50.766;4.474;2022-08-19T08:17:44;21.30;99.90
13898;DHT22;7019;50.766;4.474;2022-08-19T08:20:13;21.30;99.90
13898;DHT22;7019;50.766;4.474;2022-08-19T08:22:43;21.30;99.90
13898;DHT22;7019;50.766;4.474;2022-08-19T08:25:28;21.40;99.90
13898;DHT22;7019;50.766;4.474;2022-08-19T08:27:56;21.50;99.90
13898;DHT22;7019;50.766;4.474;2022-08-19T08:30:27;21.70;99.90
13898;DHT22;7019;50.766;4.474;2022-08-19T08:32:54;21.80;99.90
13898;DHT22;7019;50.766;4.474;2022-08-19T08:35:23;22.00;99.90
13898;DHT22;7019;50.766;4.474;2022-08-19T08:37:53;22.10;99.90
13898;DHT22;7019;50.766;4.474;2022-08-19T08:40:23;22.20;99.90
13898;DHT22;7019;50.766;4.474;2022-08-19T08:43:03;22.20;99.90
13898;DHT22;7019;50.766;4.474;2022-08-19T08:45:33;22.10;99.90
13898;DHT22;7019;50.766;4.474;2022-08-19T08:48:07;22.10;99.90
13898;DHT22;7019;50.766;4.474;2022-08-19T08:50:41;22.20;99.90
13898;DHT22;7019;50.766;4.474;2022-08-19T08:53:10;22.30;99.90
13898;DHT22;7019;50.766;4.474;2022-08-19T08:55:40;22.50;99.90
13898;DHT22;7019;50.766;4.474;2022-08-19T08:58:12;22.50;99.90
13898;DHT22;7019;50.766;4.474;2022-08-19T09:00:45;22.50;99.90
13898;DHT22;7019;50.766;4.474;2022-08-19T09:03:18;22.40;99.90
13898;DHT22;7019;50.766;4.474;2022-08-19T09:05:52;22.30;99.90
13898;DHT22;7019;50.766;4.474;2022-08-19T09:08:30;22.20;99.90
13898;DHT22;7019;50.766;4.474;2022-08-19T09:11:04;22.20;99.90
13898;DHT22;7019;50.766;4.474;2022-08-19T09:13:39;22.20;99.90
13898;DHT22;7019;50.766;4.474;2022-08-19T09:16:11;22.20;99.90
13898;DHT22;7019;50.766;4.474;2022-08-19T09:18:40;22.40;99.90
13898;DHT22;7019;50.766;4.474;2022-08-19T09:21:08;22.60;99.90
13898;DHT22;7019;50.766;4.474;2022-08-19T09:23:35;22.60;99.90
13898;DHT22;7019;50.766;4.474;2022-08-19T09:26:09;22.40;99.90
13898;DHT22;7019;50.766;4.474;2022-08-19T09:28:40;22.40;99.90
13898;DHT22;7019;50.766;4.474;2022-08-19T09:31:09;22.40;99.90
13898;DHT22;7019;50.766;4.474;2022-08-19T09:33:37;22.40;99.90
13898;DHT22;7019;50.766;4.474;2022-08-19T09:36:07;22.50;99.90
13898;DHT22;7019;50.766;4.474;2022-08-19T09:38:36;22.50;99.90
13898;DHT22;7019;50.766;4.474;2022-08-19T09:41:08;22.60;99.90
13898;DHT22;7019;50.766;4.474;2022-08-19T09:43:37;22.50;99.90
13898;DHT22;7019;50.766;4.474;2022-08-19T09:46:07;22.60;99.90
13898;DHT22;7019;50.766;4.474;2022-08-19T09:48:35;22.50;99.90
13898;DHT22;7019;50.766;4.474;2022-08-19T09:51:04;22.50;99.90
13898;DHT22;7019;50.766;4.474;2022-08-19T09:53:32;22.60;99.90
13898;DHT22;7019;50.766;4.474;2022-08-19T09:55:59;22.70;99.90
13898;DHT22;7019;50.766;4.474;2022-08-19T09:58:26;22.70;99.90
13898;DHT22;7019;50.766;4.474;2022-08-19T10:00:55;22.60;99.90
13898;DHT22;7019;50.766;4.474;2022-08-19T10:03:24;22.50;99.90
13898;DHT22;7019;50.766;4.474;2022-08-19T10:05:52;22.30;99.90
13898;DHT22;7019;50.766;4.474;2022-08-19T10:08:22;22.30;99.90
13898;DHT22;7019;50.766;4.474;2022-08-19T10:10:49;22.40;99.90
13898;DHT22;7019;50.766;4.474;2022-08-19T10:13:22;22.60;99.90
13898;DHT22;7019;50.766;4.474;2022-08-19T10:15:53;22.80;99.90
13898;DHT22;7019;50.766;4.474;2022-08-19T10:18:25;23.00;99.90
13898;DHT22;7019;50.766;4.474;2022-08-19T10:21:01;23.10;99.90
13898;DHT22;7019;50.766;4.474;2022-08-19T10:23:30;23.10;99.90
13898;DHT22;7019;50.766;4.474;2022-08-19T10:26:03;23.00;99.90
13898;DHT22;7019;50.766;4.474;2022-08-19T10:28:36;22.90;99.90
13898;DHT22;7019;50.766;4.474;2022-08-19T10:31:15;22.80;99.90
13898;DHT22;7019;50.766;4.474;2022-08-19T10:33:47;22.70;99.90
13898;DHT22;7019;50.766;4.474;2022-08-19T10:36:17;22.70;99.90
13898;DHT22;7019;50.766;4.474;2022-08-19T10:38:46;22.50;99.90
13898;DHT22;7019;50.766;4.474;2022-08-19T10:41:19;22.60;99.90
13898;DHT22;7019;50.766;4.474;2022-08-19T10:43:51;22.90;99.90
13898;DHT22;7019;50.766;4.474;2022-08-19T10:46:21;23.30;99.90
13898;DHT22;7019;50.766;4.474;2022-08-19T10:48:53;23.50;99.90
13898;DHT22;7019;50.766;4.474;2022-08-19T10:51:21;23.60;99.90
13898;DHT22;7019;50.766;4.474;2022-08-19T10:54:06;23.80;99.90
13898;DHT22;7019;50.766;4.474;2022-08-19T10:56:36;23.90;99.90
13898;DHT22;7019;50.766;4.474;2022-08-19T10:59:21;23.80;99.90
13898;DHT22;7019;50.766;4.474;2022-08-19T11:01:49;23.60;99.90
13898;DHT22;7019;50.766;4.474;2022-08-19T11:04:37;23.70;99.90
13898;DHT22;7019;50.766;4.474;2022-08-19T11:07:06;23.70;99.90
13898;DHT22;7019;50.766;4.474;2022-08-19T11:09:39;23.50;99.90
13898;DHT22;7019;50.766;4.474;2022-08-19T11:12:08;23.40;99.90
13898;DHT22;7019;50.766;4.474;2022-08-19T11:14:36;23.40;99.90
13898;DHT22;7019;50.766;4.474;2022-08-19T11:17:07;23.40;99.90
13898;DHT22;7019;50.766;4.474;2022-08-19T11:19:39;23.30;99.90
13898;DHT22;7019;50.766;4.474;2022-08-19T11:22:08;23.10;99.90
13898;DHT22;7019;50.766;4.474;2022-08-19T11:24:36;22.80;99.90
13898;DHT22;7019;50.766;4.474;2022-08-19T11:27:05;22.60;99.90
13898;DHT22;7019;50.766;4.474;2022-08-19T11:29:33;22.50;99.90
13898;DHT22;7019;50.766;4.474;2022-08-19T11:32:02;22.40;99.90
13898;DHT22;7019;50.766;4.474;2022-08-19T11:34:30;22.40;99.90
13898;DHT22;7019;50.766;4.474;2022-08-19T11:36:59;22.50;99.90
13898;DHT22;7019;50.766;4.474;2022-08-19T11:39:28;22.90;99.90
13898;DHT22;7019;50.766;4.474;2022-08-19T11:41:57;23.30;99.90
13898;DHT22;7019;50.766;4.474;2022-08-19T11:44:25;23.60;99.90
13898;DHT22;7019;50.766;4.474;2022-08-19T11:46:53;23.70;99.90
13898;DHT22;7019;50.766;4.474;2022-08-19T11:49:20;23.70;99.90
13898;DHT22;7019;50.766;4.474;2022-08-19T11:51:48;23.50;99.90
13898;DHT22;7019;50.766;4.474;2022-08-19T11:54:17;23.40;99.90
13898;DHT22;7019;50.766;4.474;2022-08-19T11:56:45;23.30;99.90
13898;DHT22;7019;50.766;4.474;2022-08-19T11:59:14;23.50;99.90
13898;DHT22;7019;50.766;4.474;2022-08-19T12:01:42;23.80;99.90
13898;DHT22;7019;50.766;4.474;2022-08-19T12:04:10;24.20;99.90
13898;DHT22;7019;50.766;4.474;2022-08-19T12:06:39;24.30;99.90
13898;DHT22;7019;50.766;4.474;2022-08-19T12:09:08;24.40;99.90
13898;DHT22;7019;50.766;4.474;2022-08-19T12:11:37;24.60;99.90
13898;DHT22;7019;50.766;4.474;2022-08-19T12:14:05;25.00;99.90
13898;DHT22;7019;50.766;4.474;2022-08-19T12:16:32;25.20;99.90
13898;DHT22;7019;50.766;4.474;2022-08-19T12:19:00;25.40;99.90
13898;DHT22;7019;50.766;4.474;2022-08-19T12:21:30;25.60;99.90
13898;DHT22;7019;50.766;4.474;2022-08-19T12:23:59;25.80;99.90
13898;DHT22;7019;50.766;4.474;2022-08-19T12:26:28;26.00;99.90
13898;DHT22;7019;50.766;4.474;2022-08-19T12:28:59;26.00;99.90
13898;DHT22;7019;50.766;4.474;2022-08-19T12:31:26;26.00;99.90
13898;DHT22;7019;50.766;4.474;2022-08-19T12:33:54;26.00;99.90
13898;DHT22;7019;50.766;4.474;2022-08-19T12:36:22;26.10;99.90
13898;DHT22;7019;50.766;4.474;2022-08-19T12:38:50;26.10;99.90
13898;DHT22;7019;50.766;4.474;2022-08-19T12:41:18;26.10;99.90
13898;DHT22;7019;50.766;4.474;2022-08-19T12:43:48;26.20;99.90
13898;DHT22;7019;50.766;4.474;2022-08-19T12:46:18;26.20;99.90
13898;DHT22;7019;50.766;4.474;2022-08-19T12:48:45;26.00;99.90
13898;DHT22;7019;50.766;4.474;2022-08-19T12:51:14;26.20;99.90
13898;DHT22;7019;50.766;4.474;2022-08-19T12:53:42;26.40;99.90
13898;DHT22;7019;50.766;4.474;2022-08-19T12:56:10;26.60;99.90
13898;DHT22;7019;50.766;4.474;2022-08-19T12:58:40;26.60;99.90
13898;DHT22;7019;50.766;4.474;2022-08-19T13:01:09;26.60;99.90
13898;DHT22;7019;50.766;4.474;2022-08-19T13:03:38;26.30;99.90
13898;DHT22;7019;50.766;4.474;2022-08-19T13:06:06;26.10;99.90
13898;DHT22;7019;50.766;4.474;2022-08-19T13:08:34;26.10;99.90
13898;DHT22;7019;50.766;4.474;2022-08-19T13:11:09;26.30;99.90
13898;DHT22;7019;50.766;4.474;2022-08-19T13:13:38;26.60;99.90
13898;DHT22;7019;50.766;4.474;2022-08-19T13:16:07;27.10;99.90
13898;DHT22;7019;50.766;4.474;2022-08-19T13:18:35;27.20;99.90
13898;DHT22;7019;50.766;4.474;2022-08-19T13:21:05;27.10;99.90
13898;DHT22;7019;50.766;4.474;2022-08-19T13:23:33;27.10;99.90
13898;DHT22;7019;50.766;4.474;2022-08-19T13:26:02;27.20;99.90
13898;DHT22;7019;50.766;4.474;2022-08-19T13:28:30;27.30;99.90
13898;DHT22;7019;50.766;4.474;2022-08-19T13:31:18;27.30;99.90
13898;DHT22;7019;50.766;4.474;2022-08-19T13:34:04;27.30;99.90
13898;DHT22;7019;50.766;4.474;2022-08-19T13:36:34;27.30;99.90
13898;DHT22;7019;50.766;4.474;2022-08-19T13:39:02;27.20;99.90
13898;DHT22;7019;50.766;4.474;2022-08-19T13:41:30;27.10;99.90
13898;DHT22;7019;50.766;4.474;2022-08-19T13:43:57;27.20;99.90
13898;DHT22;7019;50.766;4.474;2022-08-19T13:46:24;27.00;99.90
13898;DHT22;7019;50.766;4.474;2022-08-19T13:48:53;27.00;99.90
13898;DHT22;7019;50.766;4.474;2022-08-19T13:51:20;27.20;99.90
13898;DHT22;7019;50.766;4.474;2022-08-19T13:53:48;27.60;99.90
13898;DHT22;7019;50.766;4.474;2022-08-19T13:56:18;28.10;99.90
13898;DHT22;7019;50.766;4.474;2022-08-19T13:58:46;28.30;99.90
13898;DHT22;7019;50.766;4.474;2022-08-19T14:01:18;28.20;99.90
13898;DHT22;7019;50.766;4.474;2022-08-19T14:03:46;28.30;99.90
13898;DHT22;7019;50.766;4.474;2022-08-19T14:06:13;28.20;99.90
13898;DHT22;7019;50.766;4.474;2022-08-19T14:08:41;27.80;99.90
13898;DHT22;7019;50.766;4.474;2022-08-19T14:11:10;27.50;99.90
13898;DHT22;7019;50.766;4.474;2022-08-19T14:13:37;27.30;99.90
13898;DHT22;7019;50.766;4.474;2022-08-19T14:16:07;27.00;99.90
13898;DHT22;7019;50.766;4.474;2022-08-19T14:18:34;27.00;99.90
13898;DHT22;7019;50.766;4.474;2022-08-19T14:21:01;26.90;99.90
13898;DHT22;7019;50.766;4.474;2022-08-19T14:23:30;26.70;99.90
13898;DHT22;7019;50.766;4.474;2022-08-19T14:26:04;26.50;99.90
13898;DHT22;7019;50.766;4.474;2022-08-19T14:28:33;26.10;99.90
13898;DHT22;7019;50.766;4.474;2022-08-19T14:31:00;25.90;99.90
13898;DHT22;7019;50.766;4.474;2022-08-19T14:33:27;25.80;99.90
13898;DHT22;7019;50.766;4.474;2022-08-19T14:35:54;25.60;99.90
13898;DHT22;7019;50.766;4.474;2022-08-19T14:38:21;25.50;99.90
13898;DHT22;7019;50.766;4.474;2022-08-19T14:40:48;25.30;99.90
13898;DHT22;7019;50.766;4.474;2022-08-19T14:43:17;24.90;99.90
13898;DHT22;7019;50.766;4.474;2022-08-19T14:45:46;24.70;99.90
13898;DHT22;7019;50.766;4.474;2022-08-19T14:48:13;24.70;99.90
13898;DHT22;7019;50.766;4.474;2022-08-19T14:50:40;24.70;99.90
13898;DHT22;7019;50.766;4.474;2022-08-19T14:53:08;24.80;99.90
13898;DHT22;7019;50.766;4.474;2022-08-19T14:55:36;25.00;99.90
13898;DHT22;7019;50.766;4.474;2022-08-19T14:58:03;25.10;99.90
13898;DHT22;7019;50.766;4.474;2022-08-19T15:00:30;25.10;99.90
13898;DHT22;7019;50.766;4.474;2022-08-19T15:02:59;25.30;99.90
13898;DHT22;7019;50.766;4.474;2022-08-19T15:05:26;25.80;99.90
13898;DHT22;7019;50.766;4.474;2022-08-19T15:07:53;25.90;99.90
13898;DHT22;7019;50.766;4.474;2022-08-19T15:10:22;26.20;99.90
13898;DHT22;7019;50.766;4.474;2022-08-19T15:12:50;26.60;99.90
13898;DHT22;7019;50.766;4.474;2022-08-19T15:15:18;26.90;99.90
13898;DHT22;7019;50.766;4.474;2022-08-19T15:17:47;26.70;99.90
13898;DHT22;7019;50.766;4.474;2022-08-19T15:20:18;26.20;99.90
13898;DHT22;7019;50.766;4.474;2022-08-19T15:22:46;25.90;99.90
13898;DHT22;7019;50.766;4.474;2022-08-19T15:25:16;25.50;99.90
13898;DHT22;7019;50.766;4.474;2022-08-19T15:27:46;25.20;99.90
13898;DHT22;7019;50.766;4.474;2022-08-19T15:30:19;25.00;99.90
13898;DHT22;7019;50.766;4.474;2022-08-19T15:32:48;24.80;99.90
13898;DHT22;7019;50.766;4.474;2022-08-19T15:35:16;24.60;99.90
13898;DHT22;7019;50.766;4.474;2022-08-19T15:37:47;24.50;99.90
13898;DHT22;7019;50.766;4.474;2022-08-19T15:40:14;24.40;99.90
13898;DHT22;7019;50.766;4.474;2022-08-19T15:42:42;24.40;99.90
13898;DHT22;7019;50.766;4.474;2022-08-19T15:45:10;24.50;99.90
13898;DHT22;7019;50.766;4.474;2022-08-19T15:47:38;24.50;99.90
13898;DHT22;7019;50.766;4.474;2022-08-19T15:50:06;24.50;99.90
13898;DHT22;7019;50.766;4.474;2022-08-19T15:52:35;24.60;99.90
13898;DHT22;7019;50.766;4.474;2022-08-19T15:55:04;24.70;99.90
13898;DHT22;7019;50.766;4.474;2022-08-19T15:57:32;24.80;99.90
13898;DHT22;7019;50.766;4.474;2022-08-19T16:00:17;25.00;99.90
13898;DHT22;7019;50.766;4.474;2022-08-19T16:03:01;25.30;99.90
13898;DHT22;7019;50.766;4.474;2022-08-19T16:05:45;25.40;99.90